EXS24P EGBB-GCTS
Flight info
| Callsign | EXS24P |
|---|---|
| Flight time | 3h 22m |
| Altitude | 36000 |
| Route | LUXTO N92 BUCGO L9 TIGWE DCT ZIPWE DCT INFEC DCT PEWBI DCT GAPLI/M080F320 DCT OMOKO T16 NAVIX/N0469F320 DCT LAPPA DCT SNT DCT ORTIS |
| Aircraft | B738/M-SDE2E3FGHIRWXY/LB1 |
Departure
| Time | 2026-05-07 11:27 |
|---|---|
| Airport | Birmingham Airport (EGBB) |
Arrival
| Time | 2026-05-07 14:49 |
|---|---|
| Airport | Tenerife Sur Airport (GCTS) |
| Time | Latitude | Longitude | Altitude | Speed | Heading |
|---|---|---|---|---|---|
| 2026-05-07 11:06 | 52.44992 | -1.73429 | 322 ft | 0 kts | 326° |
| 2026-05-07 11:17 | 52.44983 | -1.73420 | 320 ft | 0 kts | 295° |
| 2026-05-07 11:18 | 52.44982 | -1.73416 | 319 ft | 1 kts | 279° |
| 2026-05-07 11:18 | 52.44980 | -1.73404 | 319 ft | 2 kts | 227° |
| 2026-05-07 11:19 | 52.44980 | -1.73405 | 319 ft | 2 kts | 225° |
| 2026-05-07 11:19 | 52.44929 | -1.73454 | 322 ft | 10 kts | 217° |
| 2026-05-07 11:19 | 52.44897 | -1.73556 | 322 ft | 10 kts | 275° |
| 2026-05-07 11:19 | 52.44942 | -1.73642 | 322 ft | 10 kts | 324° |
| 2026-05-07 11:20 | 52.44999 | -1.73709 | 322 ft | 10 kts | 324° |
| 2026-05-07 11:20 | 52.45059 | -1.73755 | 321 ft | 10 kts | 346° |
| 2026-05-07 11:20 | 52.45120 | -1.73796 | 322 ft | 9 kts | 325° |
| 2026-05-07 11:20 | 52.45171 | -1.73861 | 322 ft | 9 kts | 322° |
| 2026-05-07 11:21 | 52.45224 | -1.73916 | 322 ft | 9 kts | 330° |
| 2026-05-07 11:21 | 52.45276 | -1.73970 | 322 ft | 9 kts | 325° |
| 2026-05-07 11:21 | 52.45319 | -1.74062 | 322 ft | 12 kts | 298° |
| 2026-05-07 11:21 | 52.45360 | -1.74196 | 321 ft | 14 kts | 296° |
| 2026-05-07 11:22 | 52.45408 | -1.74353 | 322 ft | 17 kts | 297° |
| 2026-05-07 11:22 | 52.45464 | -1.74533 | 321 ft | 19 kts | 297° |
| 2026-05-07 11:22 | 52.45566 | -1.74673 | 320 ft | 21 kts | 326° |
| 2026-05-07 11:22 | 52.45702 | -1.74825 | 312 ft | 26 kts | 326° |
| 2026-05-07 11:23 | 52.45865 | -1.75006 | 306 ft | 30 kts | 326° |
| 2026-05-07 11:23 | 52.46041 | -1.75201 | 303 ft | 31 kts | 326° |
| 2026-05-07 11:23 | 52.46219 | -1.75398 | 301 ft | 30 kts | 326° |
| 2026-05-07 11:23 | 52.46385 | -1.75585 | 300 ft | 29 kts | 326° |
| 2026-05-07 11:24 | 52.46544 | -1.75762 | 303 ft | 24 kts | 325° |
| 2026-05-07 11:24 | 52.46621 | -1.75854 | 307 ft | 11 kts | 315° |
| 2026-05-07 11:24 | 52.46622 | -1.75943 | 307 ft | 0 kts | 239° |
| 2026-05-07 11:25 | 52.46622 | -1.75945 | 305 ft | 2 kts | 239° |
| 2026-05-07 11:25 | 52.46581 | -1.76046 | 304 ft | 9 kts | 233° |
| 2026-05-07 11:25 | 52.46533 | -1.76070 | 306 ft | 8 kts | 150° |
| 2026-05-07 11:26 | 52.46409 | -1.75940 | 307 ft | 43 kts | 145° |
| 2026-05-07 11:26 | 52.46012 | -1.75492 | 310 ft | 102 kts | 145° |
| 2026-05-07 11:26 | 52.45243 | -1.74626 | 331 ft | 164 kts | 146° |
| 2026-05-07 11:26 | 52.44211 | -1.73500 | 901 ft | 185 kts | 147° |
| 2026-05-07 11:27 | 52.43111 | -1.72306 | 1787 ft | 191 kts | 144° |
| 2026-05-07 11:27 | 52.42111 | -1.71104 | 3014 ft | 169 kts | 147° |
| 2026-05-07 11:27 | 52.41021 | -1.70387 | 3525 ft | 173 kts | 168° |
| 2026-05-07 11:27 | 52.39775 | -1.69912 | 3791 ft | 196 kts | 166° |
| 2026-05-07 11:28 | 52.38385 | -1.69376 | 4005 ft | 214 kts | 171° |
| 2026-05-07 11:28 | 52.36863 | -1.69701 | 4175 ft | 234 kts | 207° |
| 2026-05-07 11:28 | 52.35587 | -1.71395 | 4626 ft | 239 kts | 223° |
| 2026-05-07 11:28 | 52.34419 | -1.73302 | 5142 ft | 241 kts | 224° |
| 2026-05-07 11:29 | 52.33229 | -1.75262 | 5644 ft | 244 kts | 224° |
| 2026-05-07 11:29 | 52.32023 | -1.77245 | 6063 ft | 252 kts | 225° |
| 2026-05-07 11:29 | 52.30739 | -1.79348 | 6043 ft | 265 kts | 225° |
| 2026-05-07 11:29 | 52.29424 | -1.81491 | 6051 ft | 269 kts | 225° |
| 2026-05-07 11:30 | 52.28096 | -1.83651 | 6066 ft | 268 kts | 224° |
| 2026-05-07 11:30 | 52.26775 | -1.85792 | 6075 ft | 268 kts | 225° |
| 2026-05-07 11:30 | 52.25443 | -1.87951 | 6325 ft | 271 kts | 225° |
| 2026-05-07 11:30 | 52.24050 | -1.90208 | 6597 ft | 292 kts | 225° |
| 2026-05-07 11:31 | 52.22587 | -1.92572 | 7213 ft | 298 kts | 224° |
| 2026-05-07 11:31 | 52.21105 | -1.94961 | 7938 ft | 300 kts | 224° |
| 2026-05-07 11:31 | 52.19619 | -1.97352 | 8748 ft | 299 kts | 223° |
| 2026-05-07 11:31 | 52.18178 | -1.99670 | 9912 ft | 285 kts | 223° |
| 2026-05-07 11:32 | 52.15307 | -2.04265 | 10875 ft | 306 kts | 223° |
| 2026-05-07 11:32 | 52.13780 | -2.06698 | 11324 ft | 314 kts | 222° |
| 2026-05-07 11:32 | 52.12178 | -2.09146 | 11960 ft | 317 kts | 221° |
| 2026-05-07 11:33 | 52.10550 | -2.11582 | 12632 ft | 319 kts | 221° |
| 2026-05-07 11:33 | 52.08908 | -2.14032 | 13275 ft | 322 kts | 221° |
| 2026-05-07 11:33 | 52.07244 | -2.16518 | 13899 ft | 326 kts | 221° |
| 2026-05-07 11:33 | 52.05571 | -2.19021 | 14475 ft | 328 kts | 221° |
| 2026-05-07 11:34 | 52.03887 | -2.21543 | 15080 ft | 330 kts | 221° |
| 2026-05-07 11:34 | 52.02194 | -2.24080 | 15660 ft | 332 kts | 222° |
| 2026-05-07 11:34 | 52.00485 | -2.26637 | 16233 ft | 335 kts | 222° |
| 2026-05-07 11:34 | 51.98768 | -2.29204 | 16809 ft | 337 kts | 222° |
| 2026-05-07 11:35 | 51.97033 | -2.31795 | 17390 ft | 340 kts | 222° |
| 2026-05-07 11:35 | 51.95288 | -2.34410 | 17965 ft | 342 kts | 222° |
| 2026-05-07 11:35 | 51.93536 | -2.37041 | 18499 ft | 345 kts | 222° |
| 2026-05-07 11:35 | 51.91769 | -2.39693 | 18987 ft | 348 kts | 222° |
| 2026-05-07 11:36 | 51.89986 | -2.42367 | 19469 ft | 350 kts | 222° |
| 2026-05-07 11:36 | 51.88193 | -2.45052 | 19969 ft | 352 kts | 222° |
| 2026-05-07 11:36 | 51.86387 | -2.47754 | 20467 ft | 354 kts | 222° |
| 2026-05-07 11:36 | 51.84568 | -2.50470 | 20923 ft | 357 kts | 222° |
| 2026-05-07 11:37 | 51.82737 | -2.53200 | 21379 ft | 360 kts | 222° |
| 2026-05-07 11:37 | 51.80881 | -2.55866 | 21819 ft | 363 kts | 219° |
| 2026-05-07 11:37 | 51.78970 | -2.58548 | 22259 ft | 366 kts | 228° |
| 2026-05-07 11:37 | 51.77658 | -2.62055 | 22677 ft | 369 kts | 250° |
| 2026-05-07 11:38 | 51.77131 | -2.66106 | 23196 ft | 371 kts | 268° |
| 2026-05-07 11:38 | 51.77285 | -2.70278 | 23627 ft | 374 kts | 274° |
| 2026-05-07 11:38 | 51.77572 | -2.74486 | 23947 ft | 378 kts | 275° |
| 2026-05-07 11:38 | 51.77881 | -2.78735 | 24222 ft | 384 kts | 275° |
| 2026-05-07 11:39 | 51.78186 | -2.83046 | 24525 ft | 388 kts | 274° |
| 2026-05-07 11:39 | 51.78480 | -2.87399 | 24901 ft | 390 kts | 275° |
| 2026-05-07 11:39 | 51.78764 | -2.91770 | 25260 ft | 392 kts | 274° |
| 2026-05-07 11:39 | 51.79041 | -2.96152 | 25632 ft | 393 kts | 274° |
| 2026-05-07 11:40 | 51.79316 | -3.00563 | 25944 ft | 396 kts | 272° |
| 2026-05-07 11:40 | 51.79589 | -3.05003 | 26251 ft | 399 kts | 274° |
| 2026-05-07 11:40 | 51.79862 | -3.09418 | 26551 ft | 401 kts | 273° |
| 2026-05-07 11:40 | 51.80137 | -3.13923 | 26837 ft | 404 kts | 274° |
| 2026-05-07 11:41 | 51.80292 | -3.18463 | 27092 ft | 405 kts | 266° |
| 2026-05-07 11:41 | 51.79943 | -3.22977 | 27387 ft | 406 kts | 256° |
| 2026-05-07 11:41 | 51.79133 | -3.27341 | 27685 ft | 405 kts | 246° |
| 2026-05-07 11:41 | 51.77999 | -3.31509 | 27991 ft | 407 kts | 244° |
| 2026-05-07 11:42 | 51.76821 | -3.35682 | 28217 ft | 410 kts | 244° |
| 2026-05-07 11:42 | 51.75634 | -3.39888 | 28526 ft | 412 kts | 244° |
| 2026-05-07 11:42 | 51.74465 | -3.44080 | 29017 ft | 409 kts | 244° |
| 2026-05-07 11:42 | 51.73306 | -3.48295 | 29286 ft | 411 kts | 245° |
| 2026-05-07 11:43 | 51.72143 | -3.52532 | 29491 ft | 414 kts | 245° |
| 2026-05-07 11:43 | 51.70975 | -3.56783 | 29848 ft | 414 kts | 244° |
| 2026-05-07 11:43 | 51.69826 | -3.61059 | 30074 ft | 417 kts | 245° |
| 2026-05-07 11:43 | 51.68688 | -3.65387 | 30228 ft | 421 kts | 245° |
| 2026-05-07 11:44 | 51.67564 | -3.69686 | 30486 ft | 421 kts | 245° |
| 2026-05-07 11:44 | 51.66427 | -3.74029 | 30749 ft | 422 kts | 246° |
| 2026-05-07 11:44 | 51.65279 | -3.78396 | 30880 ft | 425 kts | 245° |
| 2026-05-07 11:44 | 51.64120 | -3.82785 | 31088 ft | 426 kts | 245° |
| 2026-05-07 11:45 | 51.62958 | -3.87171 | 31364 ft | 426 kts | 245° |
| 2026-05-07 11:45 | 51.61791 | -3.91562 | 31550 ft | 428 kts | 245° |
| 2026-05-07 11:45 | 51.60617 | -3.95976 | 31722 ft | 429 kts | 245° |
| 2026-05-07 11:45 | 51.59438 | -4.00396 | 31920 ft | 431 kts | 245° |
| 2026-05-07 11:46 | 51.58252 | -4.04833 | 32104 ft | 432 kts | 245° |
| 2026-05-07 11:46 | 51.57076 | -4.09228 | 32275 ft | 433 kts | 245° |
| 2026-05-07 11:46 | 51.55883 | -4.13681 | 32465 ft | 434 kts | 245° |
| 2026-05-07 11:46 | 51.54683 | -4.18144 | 32633 ft | 436 kts | 245° |
| 2026-05-07 11:47 | 51.53476 | -4.22621 | 32790 ft | 437 kts | 245° |
| 2026-05-07 11:47 | 51.52262 | -4.27109 | 32960 ft | 438 kts | 245° |
| 2026-05-07 11:47 | 51.51045 | -4.31597 | 33128 ft | 439 kts | 245° |
| 2026-05-07 11:47 | 51.49823 | -4.36097 | 33315 ft | 440 kts | 245° |
| 2026-05-07 11:48 | 51.48602 | -4.40586 | 33583 ft | 438 kts | 245° |
| 2026-05-07 11:48 | 51.47391 | -4.45035 | 34025 ft | 432 kts | 245° |
| 2026-05-07 11:48 | 51.46189 | -4.49444 | 34196 ft | 432 kts | 245° |
| 2026-05-07 11:49 | 51.43760 | -4.58323 | 34340 ft | 436 kts | 245° |
| 2026-05-07 11:49 | 51.42540 | -4.62770 | 34535 ft | 435 kts | 245° |
| 2026-05-07 11:49 | 51.41323 | -4.67198 | 34716 ft | 434 kts | 245° |
| 2026-05-07 11:49 | 51.40100 | -4.71639 | 34834 ft | 435 kts | 245° |
| 2026-05-07 11:50 | 51.38891 | -4.76021 | 34946 ft | 436 kts | 245° |
| 2026-05-07 11:50 | 51.36428 | -4.84923 | 35031 ft | 439 kts | 245° |
| 2026-05-07 11:51 | 51.33937 | -4.93899 | 35035 ft | 444 kts | 245° |
| 2026-05-07 11:51 | 51.31389 | -5.02930 | 35032 ft | 447 kts | 242° |
| 2026-05-07 11:52 | 51.28068 | -5.11323 | 35031 ft | 447 kts | 235° |
| 2026-05-07 11:52 | 51.24540 | -5.19512 | 35033 ft | 448 kts | 235° |
| 2026-05-07 11:53 | 51.21027 | -5.27719 | 35019 ft | 447 kts | 235° |
| 2026-05-07 11:53 | 51.17550 | -5.35914 | 35019 ft | 445 kts | 235° |
| 2026-05-07 11:54 | 51.14095 | -5.44067 | 35025 ft | 443 kts | 235° |
| 2026-05-07 11:54 | 51.10650 | -5.52178 | 35031 ft | 441 kts | 235° |
| 2026-05-07 11:55 | 51.07214 | -5.60239 | 35032 ft | 439 kts | 235° |
| 2026-05-07 11:55 | 51.03810 | -5.68197 | 35035 ft | 437 kts | 235° |
| 2026-05-07 11:56 | 51.00390 | -5.76170 | 35020 ft | 436 kts | 235° |
| 2026-05-07 11:56 | 50.96974 | -5.84110 | 35024 ft | 435 kts | 235° |
| 2026-05-07 11:57 | 50.93558 | -5.92023 | 35021 ft | 434 kts | 235° |
| 2026-05-07 11:57 | 50.90137 | -5.99925 | 35035 ft | 435 kts | 235° |
| 2026-05-07 11:58 | 50.86710 | -6.07818 | 35019 ft | 435 kts | 235° |
| 2026-05-07 11:58 | 50.83854 | -6.14377 | 35026 ft | 436 kts | 234° |
| 2026-05-07 11:59 | 50.80400 | -6.22286 | 35019 ft | 437 kts | 234° |
| 2026-05-07 11:59 | 50.76939 | -6.30187 | 35021 ft | 438 kts | 234° |
| 2026-05-07 12:00 | 50.73461 | -6.38105 | 35021 ft | 439 kts | 234° |
| 2026-05-07 12:00 | 50.69975 | -6.46018 | 35022 ft | 439 kts | 234° |
| 2026-05-07 12:01 | 50.66477 | -6.53932 | 35026 ft | 440 kts | 234° |
| 2026-05-07 12:01 | 50.62971 | -6.61843 | 35020 ft | 440 kts | 234° |
| 2026-05-07 12:02 | 50.59481 | -6.69692 | 35021 ft | 440 kts | 234° |
| 2026-05-07 12:02 | 50.55965 | -6.77575 | 35022 ft | 440 kts | 233° |
| 2026-05-07 12:03 | 50.52444 | -6.85447 | 35022 ft | 439 kts | 233° |
| 2026-05-07 12:03 | 50.48924 | -6.93292 | 35017 ft | 439 kts | 233° |
| 2026-05-07 12:04 | 50.45394 | -7.01135 | 35021 ft | 439 kts | 233° |
| 2026-05-07 12:04 | 50.41869 | -7.08947 | 35020 ft | 439 kts | 233° |
| 2026-05-07 12:05 | 50.38339 | -7.16746 | 35021 ft | 438 kts | 233° |
| 2026-05-07 12:05 | 50.34828 | -7.24479 | 35021 ft | 438 kts | 233° |
| 2026-05-07 12:06 | 50.31282 | -7.32266 | 35021 ft | 438 kts | 233° |
| 2026-05-07 12:06 | 50.27736 | -7.40029 | 35028 ft | 439 kts | 233° |
| 2026-05-07 12:07 | 50.24182 | -7.47789 | 35023 ft | 439 kts | 232° |
| 2026-05-07 12:07 | 50.20611 | -7.55563 | 35022 ft | 440 kts | 232° |
| 2026-05-07 12:08 | 50.17058 | -7.63275 | 35022 ft | 441 kts | 232° |
| 2026-05-07 12:08 | 50.13470 | -7.71040 | 35023 ft | 441 kts | 232° |
| 2026-05-07 12:09 | 50.09875 | -7.78799 | 35022 ft | 442 kts | 232° |
| 2026-05-07 12:09 | 50.06263 | -7.86572 | 35021 ft | 443 kts | 232° |
| 2026-05-07 12:10 | 50.02646 | -7.94336 | 35022 ft | 443 kts | 232° |
| 2026-05-07 12:10 | 49.99270 | -8.02359 | 35009 ft | 446 kts | 244° |
| 2026-05-07 12:11 | 49.96892 | -8.11259 | 35018 ft | 447 kts | 246° |
| 2026-05-07 12:11 | 49.94554 | -8.20196 | 35018 ft | 447 kts | 246° |
| 2026-05-07 12:12 | 49.92180 | -8.29116 | 35017 ft | 447 kts | 246° |
| 2026-05-07 12:12 | 49.89777 | -8.38027 | 35015 ft | 447 kts | 245° |
| 2026-05-07 12:13 | 49.87365 | -8.46912 | 35015 ft | 447 kts | 245° |
| 2026-05-07 12:13 | 49.84946 | -8.55786 | 35017 ft | 447 kts | 245° |
| 2026-05-07 12:14 | 49.82538 | -8.64590 | 35014 ft | 446 kts | 246° |
| 2026-05-07 12:14 | 49.80110 | -8.73434 | 35017 ft | 446 kts | 246° |
| 2026-05-07 12:15 | 49.77672 | -8.82281 | 35015 ft | 446 kts | 246° |
| 2026-05-07 12:15 | 49.75231 | -8.91108 | 35014 ft | 446 kts | 246° |
| 2026-05-07 12:16 | 49.72784 | -8.99921 | 35017 ft | 446 kts | 246° |
| 2026-05-07 12:16 | 49.70331 | -9.08725 | 35014 ft | 446 kts | 246° |
| 2026-05-07 12:17 | 49.67868 | -9.17528 | 35013 ft | 446 kts | 246° |
| 2026-05-07 12:17 | 49.65398 | -9.26330 | 35012 ft | 447 kts | 246° |
| 2026-05-07 12:18 | 49.62919 | -9.35126 | 35015 ft | 447 kts | 246° |
| 2026-05-07 12:18 | 49.60438 | -9.43898 | 35013 ft | 448 kts | 246° |
| 2026-05-07 12:19 | 49.57938 | -9.52704 | 35015 ft | 448 kts | 246° |
| 2026-05-07 12:19 | 49.55430 | -9.61509 | 35020 ft | 448 kts | 246° |
| 2026-05-07 12:20 | 49.52929 | -9.70253 | 35015 ft | 449 kts | 246° |
| 2026-05-07 12:20 | 49.50392 | -9.79093 | 35015 ft | 449 kts | 245° |
| 2026-05-07 12:21 | 49.47878 | -9.87820 | 35011 ft | 449 kts | 245° |
| 2026-05-07 12:21 | 49.45341 | -9.96595 | 35008 ft | 449 kts | 246° |
| 2026-05-07 12:22 | 49.42797 | -10.05362 | 35007 ft | 449 kts | 246° |
| 2026-05-07 12:22 | 49.40242 | -10.14131 | 35012 ft | 449 kts | 246° |
| 2026-05-07 12:23 | 49.37685 | -10.22882 | 35009 ft | 449 kts | 246° |
| 2026-05-07 12:23 | 49.35120 | -10.31624 | 35007 ft | 449 kts | 246° |
| 2026-05-07 12:24 | 49.32550 | -10.40354 | 35011 ft | 449 kts | 246° |
| 2026-05-07 12:24 | 49.29975 | -10.49066 | 35011 ft | 449 kts | 246° |
| 2026-05-07 12:25 | 49.27395 | -10.57768 | 35012 ft | 449 kts | 246° |
| 2026-05-07 12:25 | 49.24826 | -10.66400 | 35006 ft | 448 kts | 246° |
| 2026-05-07 12:26 | 49.22230 | -10.75089 | 35000 ft | 448 kts | 248° |
| 2026-05-07 12:26 | 49.19628 | -10.83772 | 35011 ft | 448 kts | 247° |
| 2026-05-07 12:27 | 49.17023 | -10.92435 | 35013 ft | 448 kts | 247° |
| 2026-05-07 12:27 | 49.14430 | -11.01024 | 35011 ft | 448 kts | 247° |
| 2026-05-07 12:28 | 49.11809 | -11.09680 | 35011 ft | 449 kts | 247° |
| 2026-05-07 12:28 | 49.09183 | -11.18318 | 35011 ft | 449 kts | 247° |
| 2026-05-07 12:29 | 49.06550 | -11.26948 | 35010 ft | 449 kts | 247° |
| 2026-05-07 12:29 | 49.03913 | -11.35564 | 35010 ft | 449 kts | 247° |
| 2026-05-07 12:30 | 49.01263 | -11.44190 | 35012 ft | 448 kts | 247° |
| 2026-05-07 12:30 | 48.98630 | -11.52733 | 35014 ft | 448 kts | 247° |
| 2026-05-07 12:31 | 48.95981 | -11.61299 | 35001 ft | 447 kts | 247° |
| 2026-05-07 12:31 | 48.93334 | -11.69825 | 35015 ft | 445 kts | 247° |
| 2026-05-07 12:32 | 48.90689 | -11.78320 | 35008 ft | 444 kts | 247° |
| 2026-05-07 12:32 | 48.88045 | -11.86791 | 35013 ft | 443 kts | 247° |
| 2026-05-07 12:33 | 48.83367 | -11.98798 | 35022 ft | 448 kts | 225° |
| 2026-05-07 12:33 | 48.80863 | -12.01641 | 35007 ft | 453 kts | 212° |
| 2026-05-07 12:33 | 48.77972 | -12.03592 | 35027 ft | 456 kts | 204° |
| 2026-05-07 12:34 | 48.71992 | -12.06842 | 35018 ft | 457 kts | 202° |
| 2026-05-07 12:34 | 48.66003 | -12.10064 | 34990 ft | 457 kts | 203° |
| 2026-05-07 12:35 | 48.60026 | -12.13346 | 35002 ft | 456 kts | 204° |
| 2026-05-07 12:35 | 48.54101 | -12.16635 | 35012 ft | 457 kts | 204° |
| 2026-05-07 12:36 | 48.48123 | -12.19956 | 35013 ft | 458 kts | 204° |
| 2026-05-07 12:36 | 48.42143 | -12.23270 | 35004 ft | 459 kts | 204° |
| 2026-05-07 12:37 | 48.36138 | -12.26588 | 35005 ft | 459 kts | 204° |
| 2026-05-07 12:37 | 48.30125 | -12.29900 | 35009 ft | 460 kts | 204° |
| 2026-05-07 12:38 | 48.24106 | -12.33207 | 35009 ft | 460 kts | 204° |
| 2026-05-07 12:38 | 48.18091 | -12.36503 | 35008 ft | 460 kts | 204° |
| 2026-05-07 12:39 | 48.12110 | -12.39773 | 35008 ft | 460 kts | 204° |
| 2026-05-07 12:39 | 48.06092 | -12.43055 | 34993 ft | 460 kts | 204° |
| 2026-05-07 12:40 | 48.00093 | -12.46317 | 35001 ft | 458 kts | 204° |
| 2026-05-07 12:40 | 47.94119 | -12.49578 | 34994 ft | 456 kts | 205° |
| 2026-05-07 12:41 | 47.88212 | -12.52990 | 35004 ft | 454 kts | 206° |
| 2026-05-07 12:41 | 47.82344 | -12.56432 | 35009 ft | 452 kts | 206° |
| 2026-05-07 12:42 | 47.76517 | -12.59825 | 35008 ft | 452 kts | 205° |
| 2026-05-07 12:42 | 47.70659 | -12.63211 | 35000 ft | 451 kts | 205° |
| 2026-05-07 12:43 | 47.64811 | -12.66575 | 35010 ft | 451 kts | 205° |
| 2026-05-07 12:43 | 47.58967 | -12.69928 | 35001 ft | 450 kts | 205° |
| 2026-05-07 12:44 | 47.53121 | -12.73275 | 34996 ft | 450 kts | 205° |
| 2026-05-07 12:44 | 47.47280 | -12.76611 | 34993 ft | 449 kts | 205° |
| 2026-05-07 12:45 | 47.41480 | -12.79916 | 34999 ft | 449 kts | 205° |
| 2026-05-07 12:45 | 47.35652 | -12.83228 | 35000 ft | 449 kts | 205° |
| 2026-05-07 12:46 | 47.30800 | -12.85981 | 34998 ft | 449 kts | 205° |
| 2026-05-07 12:46 | 47.24965 | -12.89283 | 34999 ft | 449 kts | 205° |
| 2026-05-07 12:47 | 47.19134 | -12.92576 | 34996 ft | 449 kts | 205° |
| 2026-05-07 12:47 | 47.13306 | -12.95858 | 34998 ft | 449 kts | 205° |
| 2026-05-07 12:48 | 47.07479 | -12.99133 | 34998 ft | 449 kts | 205° |
| 2026-05-07 12:48 | 47.01645 | -13.02404 | 34992 ft | 448 kts | 205° |
| 2026-05-07 12:49 | 46.95814 | -13.05666 | 34996 ft | 448 kts | 205° |
| 2026-05-07 12:49 | 46.90019 | -13.08900 | 34999 ft | 448 kts | 205° |
| 2026-05-07 12:50 | 46.84178 | -13.12151 | 34997 ft | 448 kts | 205° |
| 2026-05-07 12:50 | 46.78350 | -13.15388 | 34993 ft | 447 kts | 204° |
| 2026-05-07 12:51 | 46.72534 | -13.18611 | 34989 ft | 446 kts | 204° |
| 2026-05-07 12:51 | 46.66732 | -13.21819 | 34992 ft | 445 kts | 204° |
| 2026-05-07 12:52 | 46.60948 | -13.25009 | 34978 ft | 444 kts | 204° |
| 2026-05-07 12:52 | 46.55179 | -13.28185 | 34990 ft | 443 kts | 204° |
| 2026-05-07 12:53 | 46.49412 | -13.31351 | 34992 ft | 442 kts | 204° |
| 2026-05-07 12:53 | 46.43701 | -13.34480 | 34992 ft | 442 kts | 204° |
| 2026-05-07 12:54 | 46.37942 | -13.37629 | 34988 ft | 441 kts | 204° |
| 2026-05-07 12:54 | 46.32199 | -13.40761 | 34990 ft | 441 kts | 204° |
| 2026-05-07 12:55 | 46.26459 | -13.43884 | 34988 ft | 441 kts | 204° |
| 2026-05-07 12:55 | 46.20716 | -13.47003 | 34989 ft | 441 kts | 204° |
| 2026-05-07 12:56 | 46.14977 | -13.50112 | 34979 ft | 441 kts | 204° |
| 2026-05-07 12:56 | 46.09268 | -13.53198 | 34988 ft | 441 kts | 204° |
| 2026-05-07 12:57 | 46.03528 | -13.56294 | 34982 ft | 441 kts | 204° |
| 2026-05-07 12:57 | 45.97785 | -13.59385 | 34992 ft | 441 kts | 203° |
| 2026-05-07 12:58 | 45.92034 | -13.62473 | 34982 ft | 441 kts | 203° |
| 2026-05-07 12:58 | 45.86291 | -13.65550 | 34980 ft | 440 kts | 203° |
| 2026-05-07 12:59 | 45.80547 | -13.68620 | 34980 ft | 440 kts | 203° |
| 2026-05-07 12:59 | 45.74804 | -13.71683 | 34980 ft | 440 kts | 203° |
| 2026-05-07 13:00 | 45.69111 | -13.74713 | 34976 ft | 439 kts | 203° |
| 2026-05-07 13:00 | 45.63382 | -13.77756 | 34979 ft | 438 kts | 203° |
| 2026-05-07 13:01 | 45.57658 | -13.80789 | 34983 ft | 438 kts | 203° |
| 2026-05-07 13:01 | 45.51943 | -13.83811 | 34967 ft | 437 kts | 203° |
| 2026-05-07 13:02 | 45.46238 | -13.86821 | 34977 ft | 437 kts | 203° |
| 2026-05-07 13:02 | 45.40578 | -13.89801 | 34977 ft | 437 kts | 203° |
| 2026-05-07 13:03 | 45.34880 | -13.92795 | 34975 ft | 436 kts | 203° |
| 2026-05-07 13:03 | 45.29184 | -13.95781 | 34968 ft | 436 kts | 203° |
| 2026-05-07 13:04 | 45.23489 | -13.98759 | 34975 ft | 436 kts | 203° |
| 2026-05-07 13:04 | 45.17800 | -14.01729 | 34979 ft | 436 kts | 202° |
| 2026-05-07 13:05 | 45.12105 | -14.04695 | 34971 ft | 436 kts | 202° |
| 2026-05-07 13:05 | 45.06417 | -14.07652 | 34967 ft | 435 kts | 202° |
| 2026-05-07 13:06 | 45.00736 | -14.10598 | 34976 ft | 435 kts | 202° |
| 2026-05-07 13:06 | 44.95050 | -14.13541 | 34965 ft | 435 kts | 202° |
| 2026-05-07 13:07 | 44.89363 | -14.16478 | 34966 ft | 435 kts | 202° |
| 2026-05-07 13:07 | 44.83685 | -14.19405 | 34972 ft | 434 kts | 202° |
| 2026-05-07 13:08 | 44.78013 | -14.22321 | 34961 ft | 433 kts | 202° |
| 2026-05-07 13:08 | 44.72379 | -14.25213 | 34965 ft | 432 kts | 202° |
| 2026-05-07 13:09 | 44.66730 | -14.28106 | 34962 ft | 431 kts | 202° |
| 2026-05-07 13:09 | 44.61089 | -14.30989 | 34964 ft | 430 kts | 202° |
| 2026-05-07 13:10 | 44.55463 | -14.33859 | 34957 ft | 429 kts | 202° |
| 2026-05-07 13:10 | 44.49846 | -14.36718 | 34963 ft | 429 kts | 202° |
| 2026-05-07 13:11 | 44.44242 | -14.39565 | 34964 ft | 428 kts | 201° |
| 2026-05-07 13:11 | 44.38684 | -14.42382 | 34954 ft | 427 kts | 201° |
| 2026-05-07 13:12 | 44.33094 | -14.45210 | 34958 ft | 426 kts | 201° |
| 2026-05-07 13:12 | 44.27514 | -14.48027 | 34952 ft | 426 kts | 201° |
| 2026-05-07 13:13 | 44.21940 | -14.50836 | 34954 ft | 426 kts | 201° |
| 2026-05-07 13:13 | 44.16368 | -14.53638 | 34955 ft | 425 kts | 201° |
| 2026-05-07 13:14 | 44.10798 | -14.56433 | 34955 ft | 425 kts | 201° |
| 2026-05-07 13:14 | 44.05262 | -14.59205 | 34951 ft | 426 kts | 201° |
| 2026-05-07 13:15 | 43.99685 | -14.61993 | 34954 ft | 426 kts | 201° |
| 2026-05-07 13:15 | 43.94102 | -14.64778 | 34953 ft | 426 kts | 201° |
| 2026-05-07 13:16 | 43.88510 | -14.67562 | 34948 ft | 426 kts | 201° |
| 2026-05-07 13:16 | 43.82925 | -14.70337 | 34952 ft | 427 kts | 201° |
| 2026-05-07 13:17 | 43.77334 | -14.73109 | 34954 ft | 427 kts | 201° |
| 2026-05-07 13:17 | 43.71743 | -14.75876 | 34945 ft | 427 kts | 200° |
| 2026-05-07 13:18 | 43.66184 | -14.78621 | 34946 ft | 427 kts | 200° |
| 2026-05-07 13:18 | 43.60579 | -14.81384 | 34949 ft | 427 kts | 200° |
| 2026-05-07 13:19 | 43.54982 | -14.84137 | 34945 ft | 427 kts | 200° |
| 2026-05-07 13:19 | 43.49392 | -14.86882 | 34944 ft | 426 kts | 200° |
| 2026-05-07 13:20 | 43.43801 | -14.89621 | 34929 ft | 426 kts | 200° |
| 2026-05-07 13:20 | 43.38221 | -14.92350 | 34940 ft | 425 kts | 200° |
| 2026-05-07 13:21 | 43.32683 | -14.95053 | 34955 ft | 425 kts | 200° |
| 2026-05-07 13:21 | 43.27100 | -14.97773 | 34943 ft | 425 kts | 200° |
| 2026-05-07 13:22 | 43.21528 | -15.00482 | 34935 ft | 424 kts | 200° |
| 2026-05-07 13:22 | 43.15968 | -15.03179 | 34942 ft | 423 kts | 200° |
| 2026-05-07 13:23 | 43.10422 | -15.05865 | 34941 ft | 422 kts | 200° |
| 2026-05-07 13:23 | 43.04878 | -15.08545 | 34941 ft | 422 kts | 200° |
| 2026-05-07 13:24 | 42.99384 | -15.11196 | 34939 ft | 421 kts | 200° |
| 2026-05-07 13:24 | 42.93855 | -15.13858 | 34938 ft | 421 kts | 200° |
| 2026-05-07 13:25 | 42.88334 | -15.16512 | 34940 ft | 420 kts | 200° |
| 2026-05-07 13:25 | 42.82817 | -15.19159 | 34940 ft | 420 kts | 200° |
| 2026-05-07 13:26 | 42.77301 | -15.21799 | 34937 ft | 420 kts | 200° |
| 2026-05-07 13:26 | 42.71817 | -15.24420 | 34940 ft | 420 kts | 200° |
| 2026-05-07 13:27 | 42.66307 | -15.27049 | 34940 ft | 420 kts | 200° |
| 2026-05-07 13:27 | 42.60793 | -15.29674 | 34939 ft | 420 kts | 200° |
| 2026-05-07 13:28 | 42.55279 | -15.32294 | 34942 ft | 420 kts | 200° |
| 2026-05-07 13:28 | 42.49760 | -15.34912 | 34936 ft | 420 kts | 200° |
| 2026-05-07 13:29 | 42.44247 | -15.37522 | 34933 ft | 420 kts | 200° |
| 2026-05-07 13:29 | 42.38727 | -15.40131 | 34934 ft | 420 kts | 200° |
| 2026-05-07 13:30 | 42.33216 | -15.42730 | 34937 ft | 419 kts | 200° |
| 2026-05-07 13:30 | 42.27705 | -15.45325 | 34935 ft | 419 kts | 200° |
| 2026-05-07 13:31 | 42.22199 | -15.47913 | 34934 ft | 419 kts | 200° |
| 2026-05-07 13:31 | 42.16686 | -15.50499 | 34931 ft | 419 kts | 200° |
| 2026-05-07 13:32 | 42.11220 | -15.53059 | 34932 ft | 418 kts | 200° |
| 2026-05-07 13:32 | 42.05717 | -15.55632 | 34931 ft | 418 kts | 200° |
| 2026-05-07 13:33 | 42.00187 | -15.58075 | 34928 ft | 419 kts | 194° |
| 2026-05-07 13:33 | 41.94393 | -15.58996 | 34933 ft | 420 kts | 186° |
| 2026-05-07 13:34 | 41.85650 | -15.59889 | 34930 ft | 420 kts | 187° |
| 2026-05-07 13:35 | 41.79830 | -15.60515 | 34933 ft | 420 kts | 187° |
| 2026-05-07 13:35 | 41.74992 | -15.61043 | 34934 ft | 419 kts | 187° |
| 2026-05-07 13:36 | 41.69170 | -15.61681 | 34931 ft | 419 kts | 187° |
| 2026-05-07 13:36 | 41.63342 | -15.62317 | 34931 ft | 419 kts | 187° |
| 2026-05-07 13:37 | 41.57552 | -15.62949 | 34938 ft | 420 kts | 187° |
| 2026-05-07 13:37 | 41.51729 | -15.63582 | 34937 ft | 419 kts | 187° |
| 2026-05-07 13:38 | 41.45921 | -15.64212 | 34938 ft | 418 kts | 187° |
| 2026-05-07 13:38 | 41.40131 | -15.64846 | 34934 ft | 417 kts | 187° |
| 2026-05-07 13:39 | 41.34354 | -15.65467 | 34925 ft | 415 kts | 187° |
| 2026-05-07 13:39 | 41.28605 | -15.66085 | 34932 ft | 413 kts | 187° |
| 2026-05-07 13:40 | 41.22884 | -15.66701 | 34929 ft | 412 kts | 187° |
| 2026-05-07 13:40 | 41.17215 | -15.67312 | 34930 ft | 411 kts | 187° |
| 2026-05-07 13:41 | 41.11523 | -15.67923 | 34925 ft | 410 kts | 187° |
| 2026-05-07 13:41 | 41.05848 | -15.68532 | 34929 ft | 409 kts | 187° |
| 2026-05-07 13:42 | 41.00180 | -15.69139 | 34927 ft | 408 kts | 187° |
| 2026-05-07 13:42 | 40.94528 | -15.69743 | 34928 ft | 407 kts | 187° |
| 2026-05-07 13:43 | 40.88873 | -15.70347 | 34923 ft | 407 kts | 187° |
| 2026-05-07 13:43 | 40.83213 | -15.70949 | 34934 ft | 408 kts | 187° |
| 2026-05-07 13:44 | 40.77551 | -15.71552 | 34926 ft | 408 kts | 187° |
| 2026-05-07 13:44 | 40.71914 | -15.72150 | 34929 ft | 409 kts | 187° |
| 2026-05-07 13:45 | 40.66228 | -15.72753 | 34930 ft | 410 kts | 187° |
| 2026-05-07 13:45 | 40.60532 | -15.73355 | 34931 ft | 411 kts | 187° |
| 2026-05-07 13:46 | 40.54831 | -15.73957 | 34927 ft | 411 kts | 187° |
| 2026-05-07 13:46 | 40.49126 | -15.74558 | 34935 ft | 411 kts | 187° |
| 2026-05-07 13:47 | 40.43420 | -15.75158 | 34929 ft | 411 kts | 187° |
| 2026-05-07 13:47 | 40.37716 | -15.75758 | 34932 ft | 411 kts | 187° |
| 2026-05-07 13:48 | 40.32015 | -15.76355 | 34938 ft | 411 kts | 187° |
| 2026-05-07 13:48 | 40.26315 | -15.76952 | 34937 ft | 411 kts | 187° |
| 2026-05-07 13:49 | 40.20616 | -15.77548 | 34928 ft | 411 kts | 187° |
| 2026-05-07 13:49 | 40.14950 | -15.78139 | 34940 ft | 411 kts | 187° |
| 2026-05-07 13:50 | 40.09233 | -15.78735 | 34941 ft | 412 kts | 187° |
| 2026-05-07 13:50 | 40.03517 | -15.79329 | 34924 ft | 412 kts | 188° |
| 2026-05-07 13:51 | 39.97803 | -15.79922 | 34941 ft | 412 kts | 188° |
| 2026-05-07 13:51 | 39.92081 | -15.80515 | 34944 ft | 412 kts | 188° |
| 2026-05-07 13:52 | 39.86362 | -15.81107 | 34934 ft | 412 kts | 188° |
| 2026-05-07 13:52 | 39.80652 | -15.81697 | 34933 ft | 411 kts | 188° |
| 2026-05-07 13:53 | 39.74986 | -15.82281 | 34934 ft | 410 kts | 188° |
| 2026-05-07 13:53 | 39.69299 | -15.82866 | 34944 ft | 410 kts | 188° |
| 2026-05-07 13:54 | 39.63616 | -15.83451 | 34943 ft | 409 kts | 188° |
| 2026-05-07 13:54 | 39.57939 | -15.84033 | 34939 ft | 409 kts | 188° |
| 2026-05-07 13:55 | 39.52262 | -15.84615 | 34937 ft | 409 kts | 188° |
| 2026-05-07 13:55 | 39.46603 | -15.85194 | 34944 ft | 409 kts | 188° |
| 2026-05-07 13:56 | 39.40927 | -15.85773 | 34936 ft | 409 kts | 188° |
| 2026-05-07 13:56 | 39.35252 | -15.86352 | 34944 ft | 408 kts | 188° |
| 2026-05-07 13:57 | 39.29586 | -15.86926 | 34940 ft | 408 kts | 188° |
| 2026-05-07 13:57 | 39.23921 | -15.87474 | 34937 ft | 407 kts | 188° |
| 2026-05-07 13:58 | 39.18267 | -15.88013 | 34941 ft | 407 kts | 188° |
| 2026-05-07 13:58 | 39.12658 | -15.88548 | 34936 ft | 406 kts | 188° |
| 2026-05-07 13:59 | 39.07013 | -15.89089 | 34941 ft | 405 kts | 188° |
| 2026-05-07 13:59 | 39.01376 | -15.89628 | 34944 ft | 405 kts | 188° |
| 2026-05-07 14:00 | 38.95799 | -15.90162 | 34948 ft | 404 kts | 188° |
| 2026-05-07 14:00 | 38.90195 | -15.90697 | 34951 ft | 403 kts | 189° |
| 2026-05-07 14:01 | 38.84607 | -15.91230 | 34950 ft | 402 kts | 189° |
| 2026-05-07 14:01 | 38.79029 | -15.91761 | 34947 ft | 402 kts | 189° |
| 2026-05-07 14:02 | 38.73453 | -15.92291 | 34950 ft | 401 kts | 188° |
| 2026-05-07 14:02 | 38.67922 | -15.92816 | 34941 ft | 400 kts | 188° |
| 2026-05-07 14:03 | 38.62371 | -15.93341 | 34948 ft | 400 kts | 188° |
| 2026-05-07 14:03 | 38.56827 | -15.93866 | 34951 ft | 399 kts | 188° |
| 2026-05-07 14:04 | 38.51283 | -15.94390 | 34950 ft | 399 kts | 188° |
| 2026-05-07 14:04 | 38.45735 | -15.94913 | 34938 ft | 399 kts | 188° |
| 2026-05-07 14:05 | 38.40185 | -15.95436 | 34953 ft | 400 kts | 188° |
| 2026-05-07 14:05 | 38.34628 | -15.95959 | 34953 ft | 401 kts | 188° |
| 2026-05-07 14:06 | 38.29092 | -15.96479 | 34953 ft | 401 kts | 188° |
| 2026-05-07 14:06 | 38.23517 | -15.97001 | 34941 ft | 402 kts | 188° |
| 2026-05-07 14:07 | 38.17931 | -15.97524 | 34958 ft | 403 kts | 188° |
| 2026-05-07 14:07 | 38.12334 | -15.98047 | 34956 ft | 404 kts | 188° |
| 2026-05-07 14:08 | 38.06713 | -15.98571 | 34957 ft | 404 kts | 188° |
| 2026-05-07 14:08 | 37.96632 | -15.99509 | 34950 ft | 405 kts | 188° |
| 2026-05-07 14:09 | 37.85373 | -16.00554 | 34957 ft | 405 kts | 188° |
| 2026-05-07 14:09 | 37.74211 | -16.01587 | 34952 ft | 404 kts | 188° |
| 2026-05-07 14:10 | 37.62978 | -16.02623 | 34970 ft | 405 kts | 188° |
| 2026-05-07 14:10 | 37.51729 | -16.03658 | 34951 ft | 405 kts | 188° |
| 2026-05-07 14:11 | 37.40474 | -16.04690 | 34966 ft | 406 kts | 188° |
| 2026-05-07 14:11 | 37.29199 | -16.05721 | 34971 ft | 406 kts | 188° |
| 2026-05-07 14:12 | 37.17912 | -16.06750 | 34971 ft | 406 kts | 188° |
| 2026-05-07 14:12 | 37.06625 | -16.07775 | 34953 ft | 406 kts | 188° |
| 2026-05-07 14:13 | 36.95406 | -16.08792 | 34978 ft | 407 kts | 188° |
| 2026-05-07 14:13 | 36.77848 | -16.10377 | 34964 ft | 407 kts | 188° |
| 2026-05-07 14:14 | 36.55178 | -16.12412 | 34975 ft | 408 kts | 189° |
| 2026-05-07 14:14 | 36.34271 | -16.14278 | 34969 ft | 409 kts | 189° |
| 2026-05-07 14:15 | 35.45449 | -16.22097 | 34980 ft | 413 kts | 189° |
| 2026-05-07 14:15 | 34.54249 | -16.29894 | 34962 ft | 414 kts | 189° |
| 2026-05-07 14:16 | 33.69070 | -16.36902 | 35004 ft | 418 kts | 191° |
| 2026-05-07 14:16 | 33.63312 | -16.37483 | 35018 ft | 417 kts | 192° |
| 2026-05-07 14:17 | 33.57518 | -16.38055 | 35017 ft | 418 kts | 192° |
| 2026-05-07 14:17 | 33.51710 | -16.38572 | 35030 ft | 418 kts | 191° |
| 2026-05-07 14:18 | 33.34368 | -16.39989 | 34969 ft | 419 kts | 192° |
| 2026-05-07 14:18 | 32.41564 | -16.47434 | 34998 ft | 423 kts | 194° |
| 2026-05-07 14:19 | 32.10446 | -16.50312 | 35096 ft | 425 kts | 194° |
| 2026-05-07 14:19 | 31.71298 | -16.53266 | 34939 ft | 431 kts | 194° |
| 2026-05-07 14:19 | 31.65020 | -16.53753 | 35033 ft | 429 kts | 194° |
| 2026-05-07 14:19 | 31.36698 | -16.55796 | 35039 ft | 443 kts | 189° |
| 2026-05-07 14:20 | 31.11658 | -16.53262 | 35066 ft | 457 kts | 182° |
| 2026-05-07 14:20 | 30.61481 | -16.47573 | 35004 ft | 452 kts | 186° |
| 2026-05-07 14:21 | 30.10685 | -16.42411 | 35020 ft | 462 kts | 185° |
| 2026-05-07 14:21 | 29.59274 | -16.37354 | 34985 ft | 462 kts | 187° |
| 2026-05-07 14:21 | 29.45849 | -16.42733 | 34761 ft | 368 kts | 237° |
| 2026-05-07 14:22 | 29.44480 | -16.45161 | 34902 ft | 361 kts | 246° |
| 2026-05-07 14:22 | 29.42143 | -16.50312 | 35014 ft | 368 kts | 244° |
| 2026-05-07 14:23 | 29.39061 | -16.55095 | 35055 ft | 385 kts | 232° |
| 2026-05-07 14:23 | 29.34907 | -16.59199 | 35061 ft | 399 kts | 226° |
| 2026-05-07 14:24 | 29.30568 | -16.63272 | 35048 ft | 407 kts | 226° |
| 2026-05-07 14:24 | 29.26898 | -16.66729 | 35060 ft | 413 kts | 226° |
| 2026-05-07 14:25 | 29.22437 | -16.70946 | 35051 ft | 419 kts | 227° |
| 2026-05-07 14:25 | 29.17932 | -16.75209 | 34781 ft | 421 kts | 226° |
| 2026-05-07 14:25 | 29.15693 | -16.77323 | 34538 ft | 414 kts | 226° |
| 2026-05-07 14:26 | 29.13480 | -16.79411 | 34302 ft | 412 kts | 226° |
| 2026-05-07 14:26 | 29.11272 | -16.81498 | 33611 ft | 413 kts | 226° |
| 2026-05-07 14:26 | 29.09063 | -16.83586 | 32981 ft | 412 kts | 226° |
| 2026-05-07 14:26 | 29.06852 | -16.85675 | 32260 ft | 413 kts | 226° |
| 2026-05-07 14:27 | 29.04639 | -16.87766 | 31559 ft | 414 kts | 226° |
| 2026-05-07 14:27 | 29.02415 | -16.89865 | 30813 ft | 415 kts | 225° |
| 2026-05-07 14:27 | 29.00181 | -16.91972 | 30080 ft | 417 kts | 225° |
| 2026-05-07 14:27 | 28.97935 | -16.94089 | 29200 ft | 419 kts | 225° |
| 2026-05-07 14:28 | 28.95674 | -16.96218 | 28342 ft | 421 kts | 225° |
| 2026-05-07 14:28 | 28.93414 | -16.98344 | 27482 ft | 422 kts | 224° |
| 2026-05-07 14:28 | 28.91142 | -17.00480 | 26603 ft | 423 kts | 224° |
| 2026-05-07 14:28 | 28.88866 | -17.02619 | 25812 ft | 424 kts | 224° |
| 2026-05-07 14:29 | 28.86606 | -17.04739 | 25201 ft | 419 kts | 224° |
| 2026-05-07 14:29 | 28.84389 | -17.06818 | 24581 ft | 415 kts | 224° |
| 2026-05-07 14:29 | 28.82169 | -17.08899 | 23949 ft | 412 kts | 224° |
| 2026-05-07 14:29 | 28.79961 | -17.10969 | 23259 ft | 409 kts | 224° |
| 2026-05-07 14:30 | 28.77775 | -17.13018 | 22571 ft | 405 kts | 224° |
| 2026-05-07 14:30 | 28.75610 | -17.15046 | 21949 ft | 400 kts | 224° |
| 2026-05-07 14:30 | 28.73473 | -17.17046 | 21330 ft | 396 kts | 223° |
| 2026-05-07 14:30 | 28.71353 | -17.19030 | 20717 ft | 392 kts | 223° |
| 2026-05-07 14:31 | 28.69255 | -17.20992 | 20096 ft | 389 kts | 223° |
| 2026-05-07 14:31 | 28.67173 | -17.22940 | 19513 ft | 385 kts | 223° |
| 2026-05-07 14:31 | 28.65105 | -17.24872 | 18941 ft | 384 kts | 223° |
| 2026-05-07 14:31 | 28.63038 | -17.26805 | 18177 ft | 386 kts | 223° |
| 2026-05-07 14:32 | 28.60954 | -17.28752 | 17429 ft | 389 kts | 222° |
| 2026-05-07 14:32 | 28.58853 | -17.30713 | 16775 ft | 392 kts | 222° |
| 2026-05-07 14:32 | 28.56746 | -17.32678 | 16147 ft | 391 kts | 222° |
| 2026-05-07 14:32 | 28.54657 | -17.34624 | 15551 ft | 386 kts | 222° |
| 2026-05-07 14:33 | 28.52585 | -17.36551 | 14973 ft | 382 kts | 222° |
| 2026-05-07 14:33 | 28.50530 | -17.38438 | 14593 ft | 374 kts | 218° |
| 2026-05-07 14:33 | 28.48239 | -17.39747 | 14423 ft | 367 kts | 199° |
| 2026-05-07 14:33 | 28.45733 | -17.40117 | 14295 ft | 362 kts | 182° |
| 2026-05-07 14:34 | 28.43273 | -17.39679 | 14176 ft | 357 kts | 167° |
| 2026-05-07 14:34 | 28.41063 | -17.38539 | 14087 ft | 351 kts | 152° |
| 2026-05-07 14:34 | 28.39145 | -17.36851 | 13932 ft | 348 kts | 137° |
| 2026-05-07 14:34 | 28.37699 | -17.34663 | 13791 ft | 344 kts | 124° |
| 2026-05-07 14:35 | 28.36508 | -17.32339 | 13642 ft | 337 kts | 123° |
| 2026-05-07 14:35 | 28.35358 | -17.30054 | 13476 ft | 329 kts | 123° |
| 2026-05-07 14:35 | 28.34224 | -17.27820 | 13212 ft | 325 kts | 123° |
| 2026-05-07 14:35 | 28.33085 | -17.25607 | 12889 ft | 324 kts | 123° |
| 2026-05-07 14:36 | 28.31944 | -17.23408 | 12574 ft | 322 kts | 123° |
| 2026-05-07 14:36 | 28.30803 | -17.21214 | 12261 ft | 320 kts | 123° |
| 2026-05-07 14:36 | 28.29687 | -17.19069 | 11956 ft | 319 kts | 123° |
| 2026-05-07 14:36 | 28.28563 | -17.16909 | 11638 ft | 317 kts | 122° |
| 2026-05-07 14:37 | 28.27442 | -17.14757 | 11338 ft | 316 kts | 122° |
| 2026-05-07 14:37 | 28.25126 | -17.10546 | 10703 ft | 313 kts | 126° |
| 2026-05-07 14:37 | 28.23881 | -17.08538 | 10524 ft | 306 kts | 127° |
| 2026-05-07 14:38 | 28.22667 | -17.06596 | 10416 ft | 297 kts | 127° |
| 2026-05-07 14:38 | 28.21481 | -17.04684 | 10176 ft | 295 kts | 126° |
| 2026-05-07 14:38 | 28.20311 | -17.02784 | 9942 ft | 292 kts | 126° |
| 2026-05-07 14:38 | 28.19154 | -17.00899 | 9694 ft | 290 kts | 126° |
| 2026-05-07 14:39 | 28.18018 | -16.99046 | 9435 ft | 289 kts | 126° |
| 2026-05-07 14:39 | 28.16751 | -16.97296 | 9140 ft | 287 kts | 144° |
| 2026-05-07 14:39 | 28.15012 | -16.96250 | 8925 ft | 282 kts | 160° |
| 2026-05-07 14:39 | 28.13186 | -16.95442 | 8604 ft | 283 kts | 161° |
| 2026-05-07 14:40 | 28.11332 | -16.94639 | 8231 ft | 285 kts | 161° |
| 2026-05-07 14:40 | 28.09485 | -16.93835 | 7854 ft | 283 kts | 161° |
| 2026-05-07 14:40 | 28.07654 | -16.93029 | 7474 ft | 281 kts | 161° |
| 2026-05-07 14:40 | 28.05842 | -16.92226 | 7121 ft | 279 kts | 161° |
| 2026-05-07 14:41 | 28.03999 | -16.91604 | 6745 ft | 275 kts | 179° |
| 2026-05-07 14:41 | 28.02155 | -16.91911 | 6397 ft | 266 kts | 207° |
| 2026-05-07 14:41 | 28.00545 | -16.92911 | 6021 ft | 263 kts | 214° |
| 2026-05-07 14:41 | 27.99000 | -16.94014 | 5633 ft | 262 kts | 212° |
| 2026-05-07 14:42 | 27.97267 | -16.94616 | 5229 ft | 265 kts | 182° |
| 2026-05-07 14:42 | 27.95479 | -16.94198 | 4864 ft | 265 kts | 153° |
| 2026-05-07 14:42 | 27.94092 | -16.92867 | 4484 ft | 263 kts | 123° |
| 2026-05-07 14:42 | 27.93430 | -16.90981 | 4125 ft | 258 kts | 99° |
| 2026-05-07 14:43 | 27.93453 | -16.89028 | 4002 ft | 241 kts | 70° |
| 2026-05-07 14:43 | 27.94057 | -16.87311 | 4010 ft | 238 kts | 66° |
| 2026-05-07 14:43 | 27.94657 | -16.85579 | 3997 ft | 233 kts | 67° |
| 2026-05-07 14:43 | 27.95227 | -16.83906 | 3980 ft | 223 kts | 66° |
| 2026-05-07 14:44 | 27.95775 | -16.82308 | 3985 ft | 215 kts | 66° |
| 2026-05-07 14:44 | 27.96320 | -16.80730 | 3985 ft | 217 kts | 66° |
| 2026-05-07 14:44 | 27.96868 | -16.79143 | 3920 ft | 215 kts | 66° |
| 2026-05-07 14:44 | 27.97420 | -16.77549 | 3640 ft | 219 kts | 66° |
| 2026-05-07 14:45 | 27.97973 | -16.75948 | 3375 ft | 215 kts | 66° |
| 2026-05-07 14:45 | 27.98506 | -16.74404 | 3099 ft | 207 kts | 66° |
| 2026-05-07 14:45 | 27.99021 | -16.72913 | 2826 ft | 200 kts | 66° |
| 2026-05-07 14:45 | 27.99520 | -16.71472 | 2563 ft | 194 kts | 66° |
| 2026-05-07 14:46 | 28.00009 | -16.70061 | 2303 ft | 189 kts | 66° |
| 2026-05-07 14:46 | 28.00471 | -16.68726 | 2075 ft | 174 kts | 68° |
| 2026-05-07 14:46 | 28.00894 | -16.67502 | 1851 ft | 163 kts | 68° |
| 2026-05-07 14:46 | 28.01238 | -16.66362 | 1760 ft | 147 kts | 70° |
| 2026-05-07 14:47 | 28.01602 | -16.65286 | 1612 ft | 149 kts | 64° |
| 2026-05-07 14:47 | 28.02028 | -16.64244 | 1470 ft | 143 kts | 64° |
| 2026-05-07 14:47 | 28.02409 | -16.63214 | 1380 ft | 141 kts | 69° |
| 2026-05-07 14:47 | 28.02752 | -16.62174 | 1228 ft | 142 kts | 68° |
| 2026-05-07 14:48 | 28.03109 | -16.61122 | 1140 ft | 143 kts | 66° |
| 2026-05-07 14:48 | 28.03504 | -16.60051 | 752 ft | 149 kts | 69° |
| 2026-05-07 14:48 | 28.03881 | -16.58947 | 321 ft | 145 kts | 64° |
| 2026-05-07 14:48 | 28.04187 | -16.57964 | 194 ft | 120 kts | 63° |
| 2026-05-07 14:49 | 28.04462 | -16.57215 | 201 ft | 85 kts | 69° |
| 2026-05-07 14:49 | 28.04615 | -16.56764 | 204 ft | 39 kts | 69° |
| 2026-05-07 14:49 | 28.04747 | -16.56519 | 210 ft | 34 kts | 44° |
| 2026-05-07 14:49 | 28.04857 | -16.56399 | 215 ft | 15 kts | 44° |
| 2026-05-07 14:50 | 28.04929 | -16.56403 | 218 ft | 14 kts | 269° |
| 2026-05-07 14:50 | 28.04899 | -16.56509 | 219 ft | 14 kts | 249° |
| 2026-05-07 14:50 | 28.04865 | -16.56608 | 222 ft | 13 kts | 248° |
| 2026-05-07 14:50 | 28.04832 | -16.56702 | 221 ft | 13 kts | 249° |
| 2026-05-07 14:51 | 28.04799 | -16.56795 | 223 ft | 12 kts | 248° |
| 2026-05-07 14:51 | 28.04765 | -16.56892 | 223 ft | 15 kts | 248° |
| 2026-05-07 14:51 | 28.04727 | -16.57000 | 220 ft | 14 kts | 248° |
| 2026-05-07 14:51 | 28.04691 | -16.57102 | 223 ft | 14 kts | 246° |
| 2026-05-07 14:52 | 28.04650 | -16.57197 | 223 ft | 13 kts | 247° |
| 2026-05-07 14:52 | 28.04617 | -16.57293 | 223 ft | 13 kts | 248° |
| 2026-05-07 14:52 | 28.04594 | -16.57358 | 222 ft | 6 kts | 248° |
| 2026-05-07 14:52 | 28.04578 | -16.57401 | 223 ft | 6 kts | 248° |
| 2026-05-07 14:53 | 28.04582 | -16.57443 | 223 ft | 6 kts | 314° |
| 2026-05-07 14:53 | 28.04618 | -16.57465 | 222 ft | 6 kts | 336° |
| 2026-05-07 14:53 | 28.04656 | -16.57481 | 223 ft | 6 kts | 337° |
| 2026-05-07 14:53 | 28.04673 | -16.57518 | 223 ft | 6 kts | 265° |
| 2026-05-07 14:54 | 28.04693 | -16.57551 | 225 ft | 6 kts | 331° |
| 2026-05-07 14:54 | 28.04729 | -16.57568 | 225 ft | 5 kts | 338° |
| 2026-05-07 14:54 | 28.04741 | -16.57574 | 225 ft | 0 kts | 338° |